sensor_id;sensor_type;location;lat;lon;timestamp;P1;durP1;ratioP1;P2;durP2;ratioP2
6342;SDS011;3204;42.698;23.298;2023-07-29T00:00:51;3.65;;;3.45;;
6342;SDS011;3204;42.698;23.298;2023-07-29T00:03:16;3.83;;;3.63;;
6342;SDS011;3204;42.698;23.298;2023-07-29T00:05:41;4.22;;;3.95;;
6342;SDS011;3204;42.698;23.298;2023-07-29T00:08:07;5.45;;;3.42;;
6342;SDS011;3204;42.698;23.298;2023-07-29T00:10:34;4.90;;;4.50;;
6342;SDS011;3204;42.698;23.298;2023-07-29T00:13:01;4.68;;;4.30;;
6342;SDS011;3204;42.698;23.298;2023-07-29T00:15:27;4.50;;;4.20;;
6342;SDS011;3204;42.698;23.298;2023-07-29T00:17:53;8.88;;;4.50;;
6342;SDS011;3204;42.698;23.298;2023-07-29T00:20:18;4.45;;;4.20;;
6342;SDS011;3204;42.698;23.298;2023-07-29T00:22:44;4.32;;;4.05;;
6342;SDS011;3204;42.698;23.298;2023-07-29T00:25:09;5.10;;;4.47;;
6342;SDS011;3204;42.698;23.298;2023-07-29T00:27:35;3.85;;;3.65;;
6342;SDS011;3204;42.698;23.298;2023-07-29T00:30:00;5.13;;;3.53;;
6342;SDS011;3204;42.698;23.298;2023-07-29T00:32:29;3.90;;;3.70;;
6342;SDS011;3204;42.698;23.298;2023-07-29T00:34:54;4.25;;;4.05;;
6342;SDS011;3204;42.698;23.298;2023-07-29T00:37:20;3.40;;;3.20;;
6342;SDS011;3204;42.698;23.298;2023-07-29T00:39:46;3.58;;;3.38;;
6342;SDS011;3204;42.698;23.298;2023-07-29T00:42:11;5.72;;;3.55;;
6342;SDS011;3204;42.698;23.298;2023-07-29T00:44:37;4.00;;;3.80;;
6342;SDS011;3204;42.698;23.298;2023-07-29T00:47:02;3.83;;;3.65;;
6342;SDS011;3204;42.698;23.298;2023-07-29T00:49:30;4.05;;;3.75;;
6342;SDS011;3204;42.698;23.298;2023-07-29T00:51:56;3.80;;;3.60;;
6342;SDS011;3204;42.698;23.298;2023-07-29T00:54:22;4.07;;;3.78;;
6342;SDS011;3204;42.698;23.298;2023-07-29T00:56:48;4.28;;;3.90;;
6342;SDS011;3204;42.698;23.298;2023-07-29T00:59:13;4.25;;;4.03;;
6342;SDS011;3204;42.698;23.298;2023-07-29T01:01:39;4.30;;;4.10;;
6342;SDS011;3204;42.698;23.298;2023-07-29T01:04:04;3.97;;;3.78;;
6342;SDS011;3204;42.698;23.298;2023-07-29T01:09:04;4.13;;;3.75;;
6342;SDS011;3204;42.698;23.298;2023-07-29T01:14:21;4.38;;;4.07;;
6342;SDS011;3204;42.698;23.298;2023-07-29T01:17:04;5.15;;;3.85;;
6342;SDS011;3204;42.698;23.298;2023-07-29T01:22:30;4.75;;;4.45;;
6342;SDS011;3204;42.698;23.298;2023-07-29T01:24:58;4.25;;;3.95;;
6342;SDS011;3204;42.698;23.298;2023-07-29T01:27:24;6.38;;;3.80;;
6342;SDS011;3204;42.698;23.298;2023-07-29T01:29:49;4.28;;;3.97;;
6342;SDS011;3204;42.698;23.298;2023-07-29T01:32:17;4.18;;;3.97;;
6342;SDS011;3204;42.698;23.298;2023-07-29T01:35:24;3.92;;;3.72;;
6342;SDS011;3204;42.698;23.298;2023-07-29T01:37:59;4.05;;;3.70;;
6342;SDS011;3204;42.698;23.298;2023-07-29T01:40:34;4.57;;;4.38;;
6342;SDS011;3204;42.698;23.298;2023-07-29T01:43:00;4.90;;;4.60;;
6342;SDS011;3204;42.698;23.298;2023-07-29T01:45:26;4.70;;;4.40;;
6342;SDS011;3204;42.698;23.298;2023-07-29T01:47:52;4.93;;;4.50;;
6342;SDS011;3204;42.698;23.298;2023-07-29T01:50:17;4.50;;;4.20;;
6342;SDS011;3204;42.698;23.298;2023-07-29T01:52:43;4.82;;;4.20;;
6342;SDS011;3204;42.698;23.298;2023-07-29T01:55:08;5.53;;;4.40;;
6342;SDS011;3204;42.698;23.298;2023-07-29T01:57:34;4.70;;;4.40;;
6342;SDS011;3204;42.698;23.298;2023-07-29T01:59:59;4.95;;;4.40;;
6342;SDS011;3204;42.698;23.298;2023-07-29T02:02:25;5.70;;;4.78;;
6342;SDS011;3204;42.698;23.298;2023-07-29T02:04:50;4.47;;;4.28;;
6342;SDS011;3204;42.698;23.298;2023-07-29T02:07:16;4.35;;;4.13;;
6342;SDS011;3204;42.698;23.298;2023-07-29T02:09:42;5.35;;;4.47;;
6342;SDS011;3204;42.698;23.298;2023-07-29T02:12:08;5.10;;;4.80;;
6342;SDS011;3204;42.698;23.298;2023-07-29T02:14:33;4.75;;;4.45;;
6342;SDS011;3204;42.698;23.298;2023-07-29T02:16:59;4.18;;;3.97;;
6342;SDS011;3204;42.698;23.298;2023-07-29T02:19:24;4.80;;;4.43;;
6342;SDS011;3204;42.698;23.298;2023-07-29T02:21:50;5.40;;;4.90;;
6342;SDS011;3204;42.698;23.298;2023-07-29T02:24:15;5.30;;;4.88;;
6342;SDS011;3204;42.698;23.298;2023-07-29T02:26:41;4.45;;;4.25;;
6342;SDS011;3204;42.698;23.298;2023-07-29T02:29:06;5.55;;;4.32;;
6342;SDS011;3204;42.698;23.298;2023-07-29T02:31:32;5.22;;;4.93;;
6342;SDS011;3204;42.698;23.298;2023-07-29T02:33:57;5.03;;;4.57;;
6342;SDS011;3204;42.698;23.298;2023-07-29T02:36:23;5.53;;;5.03;;
6342;SDS011;3204;42.698;23.298;2023-07-29T02:38:48;4.93;;;4.65;;
6342;SDS011;3204;42.698;23.298;2023-07-29T02:41:14;5.00;;;4.32;;
6342;SDS011;3204;42.698;23.298;2023-07-29T02:43:41;5.32;;;4.85;;
6342;SDS011;3204;42.698;23.298;2023-07-29T02:46:08;4.80;;;4.43;;
6342;SDS011;3204;42.698;23.298;2023-07-29T02:48:33;5.57;;;5.28;;
6342;SDS011;3204;42.698;23.298;2023-07-29T02:50:59;5.82;;;4.63;;
6342;SDS011;3204;42.698;23.298;2023-07-29T02:53:24;4.78;;;4.47;;
6342;SDS011;3204;42.698;23.298;2023-07-29T02:55:50;6.28;;;5.00;;
6342;SDS011;3204;42.698;23.298;2023-07-29T02:58:16;4.32;;;4.13;;
6342;SDS011;3204;42.698;23.298;2023-07-29T03:00:41;5.35;;;4.47;;
6342;SDS011;3204;42.698;23.298;2023-07-29T03:03:09;4.97;;;4.50;;
6342;SDS011;3204;42.698;23.298;2023-07-29T03:05:35;5.90;;;4.45;;
6342;SDS011;3204;42.698;23.298;2023-07-29T03:08:01;7.40;;;4.13;;
6342;SDS011;3204;42.698;23.298;2023-07-29T03:10:26;4.05;;;3.85;;
6342;SDS011;3204;42.698;23.298;2023-07-29T03:12:55;4.10;;;3.80;;
6342;SDS011;3204;42.698;23.298;2023-07-29T03:15:24;3.95;;;3.75;;
6342;SDS011;3204;42.698;23.298;2023-07-29T03:17:50;4.50;;;4.10;;
6342;SDS011;3204;42.698;23.298;2023-07-29T03:20:16;4.88;;;4.22;;
6342;SDS011;3204;42.698;23.298;2023-07-29T03:22:42;4.47;;;4.25;;
6342;SDS011;3204;42.698;23.298;2023-07-29T03:25:08;4.13;;;3.92;;
6342;SDS011;3204;42.698;23.298;2023-07-29T03:27:34;4.45;;;4.25;;
6342;SDS011;3204;42.698;23.298;2023-07-29T03:30:02;4.32;;;4.03;;
6342;SDS011;3204;42.698;23.298;2023-07-29T03:32:30;5.00;;;4.70;;
6342;SDS011;3204;42.698;23.298;2023-07-29T03:34:56;5.22;;;4.47;;
6342;SDS011;3204;42.698;23.298;2023-07-29T03:37:21;4.43;;;4.22;;
6342;SDS011;3204;42.698;23.298;2023-07-29T03:39:47;4.65;;;4.38;;
6342;SDS011;3204;42.698;23.298;2023-07-29T03:42:13;5.07;;;4.50;;
6342;SDS011;3204;42.698;23.298;2023-07-29T03:44:38;4.88;;;4.57;;
6342;SDS011;3204;42.698;23.298;2023-07-29T03:47:06;5.95;;;4.70;;
6342;SDS011;3204;42.698;23.298;2023-07-29T03:49:33;4.72;;;4.53;;
6342;SDS011;3204;42.698;23.298;2023-07-29T03:51:58;4.53;;;4.22;;
6342;SDS011;3204;42.698;23.298;2023-07-29T03:54:23;4.53;;;4.25;;
6342;SDS011;3204;42.698;23.298;2023-07-29T03:56:49;5.07;;;4.50;;
6342;SDS011;3204;42.698;23.298;2023-07-29T03:59:14;5.38;;;4.82;;
6342;SDS011;3204;42.698;23.298;2023-07-29T04:01:40;6.55;;;4.93;;
6342;SDS011;3204;42.698;23.298;2023-07-29T04:04:05;5.93;;;5.43;;
6342;SDS011;3204;42.698;23.298;2023-07-29T04:06:31;7.47;;;4.93;;
6342;SDS011;3204;42.698;23.298;2023-07-29T04:08:57;7.97;;;5.03;;
6342;SDS011;3204;42.698;23.298;2023-07-29T04:11:23;4.85;;;4.55;;
6342;SDS011;3204;42.698;23.298;2023-07-29T04:13:49;5.13;;;4.63;;
6342;SDS011;3204;42.698;23.298;2023-07-29T04:16:14;5.20;;;4.80;;
6342;SDS011;3204;42.698;23.298;2023-07-29T04:18:41;5.22;;;4.72;;
6342;SDS011;3204;42.698;23.298;2023-07-29T04:21:07;5.00;;;4.70;;
6342;SDS011;3204;42.698;23.298;2023-07-29T04:23:32;5.72;;;4.75;;
6342;SDS011;3204;42.698;23.298;2023-07-29T04:25:58;5.22;;;4.82;;
6342;SDS011;3204;42.698;23.298;2023-07-29T04:28:23;4.95;;;4.65;;
6342;SDS011;3204;42.698;23.298;2023-07-29T04:30:48;8.77;;;5.20;;
6342;SDS011;3204;42.698;23.298;2023-07-29T04:33:14;8.13;;;4.93;;
6342;SDS011;3204;42.698;23.298;2023-07-29T04:35:40;5.40;;;4.90;;
6342;SDS011;3204;42.698;23.298;2023-07-29T04:38:05;5.68;;;5.20;;
6342;SDS011;3204;42.698;23.298;2023-07-29T04:40:32;5.72;;;5.22;;
6342;SDS011;3204;42.698;23.298;2023-07-29T04:43:00;5.55;;;5.05;;
6342;SDS011;3204;42.698;23.298;2023-07-29T04:45:28;5.75;;;5.43;;
6342;SDS011;3204;42.698;23.298;2023-07-29T04:47:54;7.32;;;5.32;;
6342;SDS011;3204;42.698;23.298;2023-07-29T04:50:20;5.38;;;5.05;;
6342;SDS011;3204;42.698;23.298;2023-07-29T04:52:45;5.25;;;4.95;;
6342;SDS011;3204;42.698;23.298;2023-07-29T04:55:10;6.45;;;5.35;;
6342;SDS011;3204;42.698;23.298;2023-07-29T04:57:36;6.03;;;5.53;;
6342;SDS011;3204;42.698;23.298;2023-07-29T05:00:02;5.72;;;5.43;;
6342;SDS011;3204;42.698;23.298;2023-07-29T05:02:28;5.95;;;5.47;;
6342;SDS011;3204;42.698;23.298;2023-07-29T05:04:53;7.40;;;5.68;;
6342;SDS011;3204;42.698;23.298;2023-07-29T05:07:18;5.75;;;5.40;;
6342;SDS011;3204;42.698;23.298;2023-07-29T05:09:44;9.32;;;5.38;;
6342;SDS011;3204;42.698;23.298;2023-07-29T05:12:09;6.07;;;5.68;;
6342;SDS011;3204;42.698;23.298;2023-07-29T05:14:35;6.55;;;6.15;;
6342;SDS011;3204;42.698;23.298;2023-07-29T05:17:00;6.03;;;5.25;;
6342;SDS011;3204;42.698;23.298;2023-07-29T05:19:26;6.00;;;5.40;;
6342;SDS011;3204;42.698;23.298;2023-07-29T05:21:51;6.07;;;5.75;;
6342;SDS011;3204;42.698;23.298;2023-07-29T05:24:17;6.45;;;5.93;;
6342;SDS011;3204;42.698;23.298;2023-07-29T05:26:42;6.57;;;6.18;;
6342;SDS011;3204;42.698;23.298;2023-07-29T05:29:08;6.38;;;5.97;;
6342;SDS011;3204;42.698;23.298;2023-07-29T05:31:33;6.25;;;5.95;;
6342;SDS011;3204;42.698;23.298;2023-07-29T05:33:59;6.38;;;5.90;;
6342;SDS011;3204;42.698;23.298;2023-07-29T05:36:24;6.97;;;6.38;;
6342;SDS011;3204;42.698;23.298;2023-07-29T05:38:51;6.65;;;6.05;;
6342;SDS011;3204;42.698;23.298;2023-07-29T05:41:17;6.82;;;6.32;;
6342;SDS011;3204;42.698;23.298;2023-07-29T05:43:42;7.00;;;6.47;;
6342;SDS011;3204;42.698;23.298;2023-07-29T05:46:08;7.03;;;6.53;;
6342;SDS011;3204;42.698;23.298;2023-07-29T05:48:35;7.18;;;6.47;;
6342;SDS011;3204;42.698;23.298;2023-07-29T05:51:00;7.05;;;6.28;;
6342;SDS011;3204;42.698;23.298;2023-07-29T05:53:26;6.90;;;6.40;;
6342;SDS011;3204;42.698;23.298;2023-07-29T05:55:51;7.55;;;6.70;;
6342;SDS011;3204;42.698;23.298;2023-07-29T05:58:16;6.72;;;6.30;;
6342;SDS011;3204;42.698;23.298;2023-07-29T06:00:42;7.47;;;6.88;;
6342;SDS011;3204;42.698;23.298;2023-07-29T06:03:07;7.82;;;7.30;;
6342;SDS011;3204;42.698;23.298;2023-07-29T06:05:33;6.95;;;6.32;;
6342;SDS011;3204;42.698;23.298;2023-07-29T06:07:58;16.40;;;7.05;;
6342;SDS011;3204;42.698;23.298;2023-07-29T06:10:24;11.68;;;6.97;;
6342;SDS011;3204;42.698;23.298;2023-07-29T06:12:49;7.20;;;6.68;;
6342;SDS011;3204;42.698;23.298;2023-07-29T06:15:15;6.88;;;6.47;;
6342;SDS011;3204;42.698;23.298;2023-07-29T06:17:40;6.30;;;5.88;;
6342;SDS011;3204;42.698;23.298;2023-07-29T06:20:06;5.88;;;5.38;;
6342;SDS011;3204;42.698;23.298;2023-07-29T06:22:31;7.43;;;6.22;;
6342;SDS011;3204;42.698;23.298;2023-07-29T06:24:57;8.48;;;5.28;;
6342;SDS011;3204;42.698;23.298;2023-07-29T06:27:23;5.82;;;5.53;;
6342;SDS011;3204;42.698;23.298;2023-07-29T06:29:50;7.07;;;6.47;;
6342;SDS011;3204;42.698;23.298;2023-07-29T06:32:15;7.68;;;7.07;;
6342;SDS011;3204;42.698;23.298;2023-07-29T06:34:41;8.05;;;6.43;;
6342;SDS011;3204;42.698;23.298;2023-07-29T06:37:06;8.55;;;6.45;;
6342;SDS011;3204;42.698;23.298;2023-07-29T06:39:32;6.55;;;5.97;;
6342;SDS011;3204;42.698;23.298;2023-07-29T06:41:57;6.72;;;6.05;;
6342;SDS011;3204;42.698;23.298;2023-07-29T06:44:23;8.48;;;6.45;;
6342;SDS011;3204;42.698;23.298;2023-07-29T06:46:48;6.10;;;5.65;;
6342;SDS011;3204;42.698;23.298;2023-07-29T06:49:13;6.22;;;5.82;;
6342;SDS011;3204;42.698;23.298;2023-07-29T06:51:39;6.40;;;5.88;;
6342;SDS011;3204;42.698;23.298;2023-07-29T06:54:04;7.80;;;6.45;;
6342;SDS011;3204;42.698;23.298;2023-07-29T06:56:30;5.85;;;5.13;;
6342;SDS011;3204;42.698;23.298;2023-07-29T06:58:55;6.03;;;4.80;;
6342;SDS011;3204;42.698;23.298;2023-07-29T07:01:21;5.60;;;5.10;;
6342;SDS011;3204;42.698;23.298;2023-07-29T07:03:46;6.18;;;5.43;;
6342;SDS011;3204;42.698;23.298;2023-07-29T07:06:12;5.45;;;4.95;;
6342;SDS011;3204;42.698;23.298;2023-07-29T07:08:37;6.22;;;5.30;;
6342;SDS011;3204;42.698;23.298;2023-07-29T07:11:02;5.40;;;5.10;;
6342;SDS011;3204;42.698;23.298;2023-07-29T07:13:28;6.32;;;5.82;;
6342;SDS011;3204;42.698;23.298;2023-07-29T07:15:54;5.72;;;5.15;;
6342;SDS011;3204;42.698;23.298;2023-07-29T07:18:20;7.05;;;6.07;;
6342;SDS011;3204;42.698;23.298;2023-07-29T07:20:50;6.80;;;6.10;;
6342;SDS011;3204;42.698;23.298;2023-07-29T07:23:16;10.63;;;6.63;;
6342;SDS011;3204;42.698;23.298;2023-07-29T07:25:42;6.85;;;5.95;;
6342;SDS011;3204;42.698;23.298;2023-07-29T07:28:08;5.95;;;5.47;;
6342;SDS011;3204;42.698;23.298;2023-07-29T07:30:34;6.05;;;5.38;;
6342;SDS011;3204;42.698;23.298;2023-07-29T07:33:00;6.05;;;5.55;;
6342;SDS011;3204;42.698;23.298;2023-07-29T07:35:25;5.65;;;5.18;;
6342;SDS011;3204;42.698;23.298;2023-07-29T07:37:51;6.00;;;5.35;;
6342;SDS011;3204;42.698;23.298;2023-07-29T07:40:16;7.05;;;5.18;;
6342;SDS011;3204;42.698;23.298;2023-07-29T07:42:42;5.43;;;5.03;;
6342;SDS011;3204;42.698;23.298;2023-07-29T07:45:07;5.25;;;4.85;;
6342;SDS011;3204;42.698;23.298;2023-07-29T07:47:33;5.70;;;5.07;;
6342;SDS011;3204;42.698;23.298;2023-07-29T07:49:58;6.25;;;4.82;;
6342;SDS011;3204;42.698;23.298;2023-07-29T07:52:24;5.28;;;4.88;;
6342;SDS011;3204;42.698;23.298;2023-07-29T07:54:53;6.63;;;5.00;;
6342;SDS011;3204;42.698;23.298;2023-07-29T07:57:20;9.85;;;5.18;;
6342;SDS011;3204;42.698;23.298;2023-07-29T07:59:46;5.22;;;4.95;;
6342;SDS011;3204;42.698;23.298;2023-07-29T08:02:11;6.03;;;5.40;;
6342;SDS011;3204;42.698;23.298;2023-07-29T08:04:37;5.85;;;4.70;;
6342;SDS011;3204;42.698;23.298;2023-07-29T08:07:02;4.88;;;4.50;;
6342;SDS011;3204;42.698;23.298;2023-07-29T08:09:28;6.43;;;4.55;;
6342;SDS011;3204;42.698;23.298;2023-07-29T08:11:53;4.60;;;4.18;;
6342;SDS011;3204;42.698;23.298;2023-07-29T08:14:18;5.55;;;4.90;;
6342;SDS011;3204;42.698;23.298;2023-07-29T08:16:44;5.13;;;4.72;;
6342;SDS011;3204;42.698;23.298;2023-07-29T08:19:09;5.68;;;5.30;;
6342;SDS011;3204;42.698;23.298;2023-07-29T08:21:35;7.10;;;4.50;;
6342;SDS011;3204;42.698;23.298;2023-07-29T08:24:01;7.30;;;5.22;;
6342;SDS011;3204;42.698;23.298;2023-07-29T08:26:26;5.20;;;4.80;;
6342;SDS011;3204;42.698;23.298;2023-07-29T08:28:52;4.78;;;4.10;;
6342;SDS011;3204;42.698;23.298;2023-07-29T08:31:17;5.15;;;4.40;;
6342;SDS011;3204;42.698;23.298;2023-07-29T08:33:43;4.88;;;4.50;;
6342;SDS011;3204;42.698;23.298;2023-07-29T08:36:08;4.60;;;4.20;;
6342;SDS011;3204;42.698;23.298;2023-07-29T08:38:33;5.63;;;4.20;;
6342;SDS011;3204;42.698;23.298;2023-07-29T08:41:16;5.00;;;4.15;;
6342;SDS011;3204;42.698;23.298;2023-07-29T08:44:30;5.05;;;4.75;;
6342;SDS011;3204;42.698;23.298;2023-07-29T08:46:52;7.03;;;4.05;;
6342;SDS011;3204;42.698;23.298;2023-07-29T08:49:19;4.55;;;4.03;;
6342;SDS011;3204;42.698;23.298;2023-07-29T08:51:45;3.90;;;3.60;;
6342;SDS011;3204;42.698;23.298;2023-07-29T08:54:12;3.85;;;3.50;;
6342;SDS011;3204;42.698;23.298;2023-07-29T08:56:40;3.72;;;3.15;;
6342;SDS011;3204;42.698;23.298;2023-07-29T08:59:06;3.40;;;3.10;;
6342;SDS011;3204;42.698;23.298;2023-07-29T09:01:32;2.95;;;2.70;;
6342;SDS011;3204;42.698;23.298;2023-07-29T09:03:58;2.85;;;2.38;;
6342;SDS011;3204;42.698;23.298;2023-07-29T09:06:24;2.88;;;2.30;;
6342;SDS011;3204;42.698;23.298;2023-07-29T09:08:51;3.30;;;2.60;;
6342;SDS011;3204;42.698;23.298;2023-07-29T09:11:18;4.15;;;2.95;;
6342;SDS011;3204;42.698;23.298;2023-07-29T09:13:45;2.72;;;2.53;;
6342;SDS011;3204;42.698;23.298;2023-07-29T09:16:11;4.30;;;2.95;;
6342;SDS011;3204;42.698;23.298;2023-07-29T09:18:36;2.95;;;2.60;;
6342;SDS011;3204;42.698;23.298;2023-07-29T09:21:02;2.35;;;2.15;;
6342;SDS011;3204;42.698;23.298;2023-07-29T09:23:28;2.67;;;2.58;;
6342;SDS011;3204;42.698;23.298;2023-07-29T09:26:03;2.17;;;2.08;;
6342;SDS011;3204;42.698;23.298;2023-07-29T09:28:36;2.05;;;1.73;;
6342;SDS011;3204;42.698;23.298;2023-07-29T09:31:03;1.88;;;1.77;;
6342;SDS011;3204;42.698;23.298;2023-07-29T09:33:37;1.67;;;1.58;;
6342;SDS011;3204;42.698;23.298;2023-07-29T09:36:09;2.42;;;1.50;;
6342;SDS011;3204;42.698;23.298;2023-07-29T09:38:35;1.75;;;1.42;;
6342;SDS011;3204;42.698;23.298;2023-07-29T09:41:01;1.88;;;1.60;;
6342;SDS011;3204;42.698;23.298;2023-07-29T09:43:30;2.00;;;1.80;;
6342;SDS011;3204;42.698;23.298;2023-07-29T09:46:00;2.25;;;1.60;;
6342;SDS011;3204;42.698;23.298;2023-07-29T09:48:27;2.17;;;1.98;;
6342;SDS011;3204;42.698;23.298;2023-07-29T09:50:54;1.52;;;1.42;;
6342;SDS011;3204;42.698;23.298;2023-07-29T09:53:20;1.77;;;1.67;;
6342;SDS011;3204;42.698;23.298;2023-07-29T09:55:46;1.42;;;1.33;;
6342;SDS011;3204;42.698;23.298;2023-07-29T09:58:19;1.55;;;1.33;;
6342;SDS011;3204;42.698;23.298;2023-07-29T10:00:50;2.28;;;1.90;;
6342;SDS011;3204;42.698;23.298;2023-07-29T10:03:16;1.80;;;1.70;;
6342;SDS011;3204;42.698;23.298;2023-07-29T10:05:43;1.70;;;1.60;;
6342;SDS011;3204;42.698;23.298;2023-07-29T10:08:10;1.73;;;1.63;;
6342;SDS011;3204;42.698;23.298;2023-07-29T10:10:37;2.75;;;1.48;;
6342;SDS011;3204;42.698;23.298;2023-07-29T10:13:02;1.45;;;1.42;;
6342;SDS011;3204;42.698;23.298;2023-07-29T10:15:28;1.67;;;1.20;;
6342;SDS011;3204;42.698;23.298;2023-07-29T10:17:54;1.23;;;1.13;;
6342;SDS011;3204;42.698;23.298;2023-07-29T10:20:20;2.20;;;2.03;;
6342;SDS011;3204;42.698;23.298;2023-07-29T10:22:46;3.50;;;1.20;;
6342;SDS011;3204;42.698;23.298;2023-07-29T10:25:15;1.15;;;1.15;;
6342;SDS011;3204;42.698;23.298;2023-07-29T10:27:49;1.48;;;1.40;;
6342;SDS011;3204;42.698;23.298;2023-07-29T10:30:18;3.05;;;1.70;;
6342;SDS011;3204;42.698;23.298;2023-07-29T10:32:44;1.48;;;1.38;;
6342;SDS011;3204;42.698;23.298;2023-07-29T10:35:13;1.13;;;1.13;;
6342;SDS011;3204;42.698;23.298;2023-07-29T10:37:39;1.15;;;1.10;;
6342;SDS011;3204;42.698;23.298;2023-07-29T10:40:07;1.75;;;1.40;;
6342;SDS011;3204;42.698;23.298;2023-07-29T10:42:33;1.33;;;1.23;;
6342;SDS011;3204;42.698;23.298;2023-07-29T10:45:00;1.10;;;1.10;;
6342;SDS011;3204;42.698;23.298;2023-07-29T10:47:26;2.10;;;1.02;;
6342;SDS011;3204;42.698;23.298;2023-07-29T10:49:57;1.63;;;1.30;;
6342;SDS011;3204;42.698;23.298;2023-07-29T10:52:27;1.15;;;1.15;;
6342;SDS011;3204;42.698;23.298;2023-07-29T10:55:25;1.00;;;1.00;;
6342;SDS011;3204;42.698;23.298;2023-07-29T10:58:14;3.63;;;1.30;;
6342;SDS011;3204;42.698;23.298;2023-07-29T11:00:43;1.38;;;1.30;;
6342;SDS011;3204;42.698;23.298;2023-07-29T11:03:10;1.85;;;1.40;;
6342;SDS011;3204;42.698;23.298;2023-07-29T11:05:51;1.65;;;1.30;;
6342;SDS011;3204;42.698;23.298;2023-07-29T11:08:22;1.30;;;1.20;;
6342;SDS011;3204;42.698;23.298;2023-07-29T11:10:58;1.98;;;1.30;;
6342;SDS011;3204;42.698;23.298;2023-07-29T11:13:37;2.10;;;1.10;;
6342;SDS011;3204;42.698;23.298;2023-07-29T11:16:03;2.25;;;1.20;;
6342;SDS011;3204;42.698;23.298;2023-07-29T11:18:34;1.33;;;1.08;;
6342;SDS011;3204;42.698;23.298;2023-07-29T11:21:00;2.15;;;1.15;;
6342;SDS011;3204;42.698;23.298;2023-07-29T11:23:31;1.23;;;0.95;;
6342;SDS011;3204;42.698;23.298;2023-07-29T11:26:01;3.10;;;1.05;;
6342;SDS011;3204;42.698;23.298;2023-07-29T11:28:28;0.98;;;0.90;;
6342;SDS011;3204;42.698;23.298;2023-07-29T11:30:57;1.42;;;1.38;;
6342;SDS011;3204;42.698;23.298;2023-07-29T11:33:26;4.80;;;1.20;;
6342;SDS011;3204;42.698;23.298;2023-07-29T11:35:53;1.30;;;1.23;;
6342;SDS011;3204;42.698;23.298;2023-07-29T11:38:20;4.88;;;1.25;;
6342;SDS011;3204;42.698;23.298;2023-07-29T11:40:53;1.20;;;1.20;;
6342;SDS011;3204;42.698;23.298;2023-07-29T11:43:20;1.10;;;0.95;;
6342;SDS011;3204;42.698;23.298;2023-07-29T11:45:45;1.00;;;1.00;;
6342;SDS011;3204;42.698;23.298;2023-07-29T11:48:11;1.05;;;1.00;;
6342;SDS011;3204;42.698;23.298;2023-07-29T11:50:36;1.50;;;1.40;;
6342;SDS011;3204;42.698;23.298;2023-07-29T11:53:02;2.45;;;1.15;;
6342;SDS011;3204;42.698;23.298;2023-07-29T11:55:28;1.65;;;1.20;;
6342;SDS011;3204;42.698;23.298;2023-07-29T11:57:53;1.25;;;1.25;;
6342;SDS011;3204;42.698;23.298;2023-07-29T12:00:19;1.35;;;1.25;;
6342;SDS011;3204;42.698;23.298;2023-07-29T12:02:46;1.77;;;1.65;;
6342;SDS011;3204;42.698;23.298;2023-07-29T12:05:14;2.53;;;1.60;;
6342;SDS011;3204;42.698;23.298;2023-07-29T12:07:41;3.60;;;1.48;;
6342;SDS011;3204;42.698;23.298;2023-07-29T12:10:07;1.20;;;1.20;;
6342;SDS011;3204;42.698;23.298;2023-07-29T12:12:38;1.00;;;1.00;;
6342;SDS011;3204;42.698;23.298;2023-07-29T12:15:13;1.52;;;1.10;;
6342;SDS011;3204;42.698;23.298;2023-07-29T12:17:47;0.90;;;0.90;;
6342;SDS011;3204;42.698;23.298;2023-07-29T12:20:13;1.38;;;1.27;;
6342;SDS011;3204;42.698;23.298;2023-07-29T12:22:38;1.40;;;1.30;;
6342;SDS011;3204;42.698;23.298;2023-07-29T12:25:05;1.30;;;1.20;;
6342;SDS011;3204;42.698;23.298;2023-07-29T12:27:31;3.13;;;1.35;;
6342;SDS011;3204;42.698;23.298;2023-07-29T12:29:57;1.00;;;1.00;;
6342;SDS011;3204;42.698;23.298;2023-07-29T12:32:28;1.20;;;1.10;;
6342;SDS011;3204;42.698;23.298;2023-07-29T12:34:54;1.10;;;1.10;;
6342;SDS011;3204;42.698;23.298;2023-07-29T12:37:19;1.10;;;1.10;;
6342;SDS011;3204;42.698;23.298;2023-07-29T12:39:45;1.10;;;1.10;;
6342;SDS011;3204;42.698;23.298;2023-07-29T12:42:15;1.02;;;1.02;;
6342;SDS011;3204;42.698;23.298;2023-07-29T12:44:41;1.38;;;1.17;;
6342;SDS011;3204;42.698;23.298;2023-07-29T12:47:07;1.55;;;1.10;;
6342;SDS011;3204;42.698;23.298;2023-07-29T12:49:33;1.20;;;1.10;;
6342;SDS011;3204;42.698;23.298;2023-07-29T12:51:59;1.10;;;1.10;;
6342;SDS011;3204;42.698;23.298;2023-07-29T12:54:25;1.30;;;1.17;;
6342;SDS011;3204;42.698;23.298;2023-07-29T12:56:51;5.03;;;1.77;;
6342;SDS011;3204;42.698;23.298;2023-07-29T12:59:16;1.10;;;1.10;;
6342;SDS011;3204;42.698;23.298;2023-07-29T13:01:42;0.93;;;0.90;;
6342;SDS011;3204;42.698;23.298;2023-07-29T13:04:09;2.97;;;1.23;;
6342;SDS011;3204;42.698;23.298;2023-07-29T13:06:35;1.33;;;1.23;;
6342;SDS011;3204;42.698;23.298;2023-07-29T13:09:00;2.15;;;0.90;;
6342;SDS011;3204;42.698;23.298;2023-07-29T13:11:26;1.17;;;1.10;;
6342;SDS011;3204;42.698;23.298;2023-07-29T13:13:51;1.60;;;1.20;;
6342;SDS011;3204;42.698;23.298;2023-07-29T13:16:17;1.00;;;1.00;;
6342;SDS011;3204;42.698;23.298;2023-07-29T13:18:43;1.23;;;1.13;;
6342;SDS011;3204;42.698;23.298;2023-07-29T13:21:08;1.10;;;1.02;;
6342;SDS011;3204;42.698;23.298;2023-07-29T13:23:34;1.10;;;1.00;;
6342;SDS011;3204;42.698;23.298;2023-07-29T13:25:59;1.20;;;1.00;;
6342;SDS011;3204;42.698;23.298;2023-07-29T13:28:25;4.45;;;1.27;;
6342;SDS011;3204;42.698;23.298;2023-07-29T13:30:50;1.25;;;1.15;;
6342;SDS011;3204;42.698;23.298;2023-07-29T13:33:16;1.35;;;1.25;;
6342;SDS011;3204;42.698;23.298;2023-07-29T13:35:41;1.48;;;1.38;;
6342;SDS011;3204;42.698;23.298;2023-07-29T13:38:07;2.88;;;1.20;;
6342;SDS011;3204;42.698;23.298;2023-07-29T13:40:32;3.35;;;1.67;;
6342;SDS011;3204;42.698;23.298;2023-07-29T13:42:59;1.80;;;1.70;;
6342;SDS011;3204;42.698;23.298;2023-07-29T13:45:25;4.40;;;1.60;;
6342;SDS011;3204;42.698;23.298;2023-07-29T13:47:50;3.22;;;1.88;;
6342;SDS011;3204;42.698;23.298;2023-07-29T13:50:16;1.60;;;1.50;;
6342;SDS011;3204;42.698;23.298;2023-07-29T13:52:44;1.80;;;1.30;;
6342;SDS011;3204;42.698;23.298;2023-07-29T13:55:10;3.97;;;1.10;;
6342;SDS011;3204;42.698;23.298;2023-07-29T13:57:36;1.88;;;1.55;;
6342;SDS011;3204;42.698;23.298;2023-07-29T14:00:03;2.00;;;1.20;;
6342;SDS011;3204;42.698;23.298;2023-07-29T14:02:30;1.15;;;1.15;;
6342;SDS011;3204;42.698;23.298;2023-07-29T14:04:56;2.80;;;1.55;;
6342;SDS011;3204;42.698;23.298;2023-07-29T14:07:22;1.20;;;1.20;;
6342;SDS011;3204;42.698;23.298;2023-07-29T14:09:47;1.80;;;1.33;;
6342;SDS011;3204;42.698;23.298;2023-07-29T14:12:13;3.67;;;1.30;;
6342;SDS011;3204;42.698;23.298;2023-07-29T14:14:40;1.77;;;1.35;;
6342;SDS011;3204;42.698;23.298;2023-07-29T14:17:06;1.70;;;1.60;;
6342;SDS011;3204;42.698;23.298;2023-07-29T14:19:33;1.58;;;1.48;;
6342;SDS011;3204;42.698;23.298;2023-07-29T14:21:59;1.88;;;1.77;;
6342;SDS011;3204;42.698;23.298;2023-07-29T14:24:24;2.17;;;1.35;;
6342;SDS011;3204;42.698;23.298;2023-07-29T14:26:50;1.45;;;1.45;;
6342;SDS011;3204;42.698;23.298;2023-07-29T14:29:15;1.58;;;1.50;;
6342;SDS011;3204;42.698;23.298;2023-07-29T14:31:41;3.25;;;1.55;;
6342;SDS011;3204;42.698;23.298;2023-07-29T14:34:06;1.63;;;1.52;;
6342;SDS011;3204;42.698;23.298;2023-07-29T14:36:32;1.70;;;1.60;;
6342;SDS011;3204;42.698;23.298;2023-07-29T14:38:57;2.03;;;1.92;;
6342;SDS011;3204;42.698;23.298;2023-07-29T14:41:22;2.03;;;1.73;;
6342;SDS011;3204;42.698;23.298;2023-07-29T14:43:48;2.00;;;1.80;;
6342;SDS011;3204;42.698;23.298;2023-07-29T14:46:13;1.63;;;1.52;;
6342;SDS011;3204;42.698;23.298;2023-07-29T14:48:39;1.65;;;1.60;;
6342;SDS011;3204;42.698;23.298;2023-07-29T14:51:04;1.65;;;1.55;;
6342;SDS011;3204;42.698;23.298;2023-07-29T14:53:30;2.28;;;1.80;;
6342;SDS011;3204;42.698;23.298;2023-07-29T14:55:55;1.80;;;1.70;;
6342;SDS011;3204;42.698;23.298;2023-07-29T14:58:20;1.60;;;1.60;;
6342;SDS011;3204;42.698;23.298;2023-07-29T15:00:46;1.50;;;1.40;;
6342;SDS011;3204;42.698;23.298;2023-07-29T15:03:11;1.80;;;1.70;;
6342;SDS011;3204;42.698;23.298;2023-07-29T15:05:37;1.90;;;1.63;;